Time;durP1;ratioP1;P1;durP2;ratioP2;P2;SDS_P1;SDS_P2;PMS_P1;PMS_P2;Temp;Humidity;BMP_temperature;BMP_pressure;BME280_temperature;BME280_humidity;BME280_pressure;Samples;Min_cycle;Max_cycle;Signal;HPM_P1;HPM_P2
2022/04/28 00:00:46;;;;;;;2.78;1.65;;;;;;;5.38;48.29;100492.38;4761061;30;20158;-77
2022/04/28 00:03:12;;;;;;;3.28;1.60;;;;;;;5.16;48.80;100464.31;4748611;30;20117;-78
2022/04/28 00:05:41;;;;;;;2.47;1.40;;;;;;;5.01;48.12;100446.75;4760008;30;20568;-79
2022/04/28 00:08:09;;;;;;;2.20;1.42;;;;;;;5.30;48.44;100496.47;4760349;30;20083;-78
2022/04/28 00:10:36;;;;;;;2.45;1.73;;;;;;;5.25;48.27;100487.75;4731332;30;20063;-80
2022/04/28 00:13:03;;;;;;;2.78;1.88;;;;;;;5.23;48.24;100500.63;4742805;30;20471;-79
2022/04/28 00:15:30;;;;;;;3.88;1.50;;;;;;;5.16;47.67;100506.44;4742763;30;20125;-79
2022/04/28 00:17:56;;;;;;;2.97;1.60;;;;;;;4.92;47.92;100474.06;4739258;30;20534;-79
2022/04/28 00:20:23;;;;;;;2.72;1.70;;;;;;;5.08;48.03;100510.53;4759460;30;20433;-78
2022/04/28 00:22:49;;;;;;;3.50;1.90;;;;;;;4.93;47.58;100504.16;4758963;30;20085;-79
2022/04/28 00:25:15;;;;;;;2.97;1.60;;;;;;;4.94;47.75;100511.06;4760844;30;20040;-78
2022/04/28 00:27:41;;;;;;;2.92;2.15;;;;;;;5.03;47.85;100525.06;4747327;30;20056;-78
2022/04/28 00:30:08;;;;;;;3.05;1.80;;;;;;;5.05;47.35;100526.81;4743035;30;20091;-79
2022/04/28 00:32:34;;;;;;;3.30;1.67;;;;;;;5.11;47.75;100534.72;4761328;30;21566;-79
2022/04/28 00:35:01;;;;;;;2.85;1.50;;;;;;;5.13;46.95;100532.19;4743721;30;20047;-80
2022/04/28 00:37:28;;;;;;;3.10;1.52;;;;;;;5.07;47.11;100516.56;4760539;30;20424;-79
2022/04/28 00:39:56;;;;;;;2.67;1.50;;;;;;;4.92;46.16;100499.00;4741392;30;20120;-79
2022/04/28 00:42:22;;;;;;;2.58;1.42;;;;;;;4.96;46.31;100505.97;4761849;30;20084;-79
2022/04/28 00:44:48;;;;;;;3.95;1.77;;;;;;;4.92;45.91;100507.59;4759418;30;20067;-80
2022/04/28 00:47:14;;;;;;;2.45;1.30;;;;;;;5.05;45.72;100532.00;4747161;30;20186;-80
2022/04/28 00:52:28;;;;;;;2.10;1.50;;;;;;;5.08;45.38;100560.44;4756390;30;20055;-80
2022/04/28 00:54:55;;;;;;;3.60;1.67;;;;;;;4.93;44.75;100547.16;4737159;30;20821;-79
2022/04/28 00:57:23;;;;;;;2.92;1.40;;;;;;;4.96;44.61;100558.44;4736992;30;20051;-80
2022/04/28 00:59:50;;;;;;;1.77;1.55;;;;;;;4.91;44.63;100560.00;4764100;30;20074;-79
2022/04/28 01:02:18;;;;;;;2.63;1.77;;;;;;;4.82;44.65;100544.31;4753781;30;20433;-78
2022/04/28 01:04:45;;;;;;;5.03;1.70;;;;;;;4.55;44.21;100485.13;4749291;30;20051;-79
2022/04/28 01:07:12;;;;;;;4.18;1.90;;;;;;;4.87;44.11;100531.53;4733231;30;20074;-79
2022/04/28 01:09:40;;;;;;;3.13;1.85;;;;;;;4.89;43.71;100520.41;4723382;30;20101;-77
2022/04/28 01:12:16;;;;;;;4.53;1.85;;;;;;;4.97;43.50;100538.66;4746681;30;20047;-79
2022/04/28 01:14:47;;;;;;;3.55;2.00;;;;;;;5.02;43.83;100546.53;4748233;30;20044;-78
2022/04/28 01:17:13;;;;;;;3.90;2.20;;;;;;;5.02;43.89;100554.25;4748154;30;20155;-78
2022/04/28 01:19:43;;;;;;;2.97;1.80;;;;;;;4.97;43.77;100551.53;4730445;30;20043;-78
2022/04/28 01:22:10;;;;;;;4.35;1.90;;;;;;;4.97;44.10;100554.13;4731142;30;20052;-78
2022/04/28 01:24:36;;;;;;;8.23;2.15;;;;;;;4.72;43.62;100530.28;4740146;30;20127;-79
2022/04/28 01:27:05;;;;;;;2.80;2.00;;;;;;;4.46;43.23;100504.69;4732229;30;20135;-79
2022/04/28 01:29:33;;;;;;;5.68;2.63;;;;;;;4.50;42.98;100549.44;4743682;30;20413;-79
2022/04/28 01:32:00;;;;;;;4.13;1.83;;;;;;;4.38;43.94;100555.13;4755441;30;20055;-78
2022/04/28 01:34:27;;;;;;;3.75;2.05;;;;;;;4.07;43.84;100546.53;4758139;30;20457;-79
2022/04/28 01:36:54;;;;;;;4.18;1.90;;;;;;;4.04;44.06;100547.28;4757754;30;20082;-77
2022/04/28 01:39:20;;;;;;;3.88;2.00;;;;;;;3.86;44.08;100521.84;4742376;30;20051;-78
2022/04/28 01:41:50;;;;;;;4.45;2.00;;;;;;;3.99;44.63;100556.56;4730141;30;20072;-78
2022/04/28 01:44:16;;;;;;;3.05;1.92;;;;;;;4.05;44.75;100569.66;4746891;30;20047;-79
2022/04/28 01:46:43;;;;;;;3.50;2.28;;;;;;;3.88;44.70;100558.81;4758165;30;20047;-80
2022/04/28 01:49:48;;;;;;;3.60;2.10;;;;;;;3.99;44.51;100502.50;4746908;30;20043;-81
2022/04/28 01:55:43;;;;;;;5.50;2.83;;;;;;;4.03;44.75;100527.50;4757626;30;20056;-80
2022/04/28 01:58:31;;;;;;;4.22;2.88;;;;;;;3.74;45.02;100524.06;4726512;30;20386;-80
2022/04/28 02:01:13;;;;;;;4.47;3.25;;;;;;;3.76;45.91;100541.28;4732201;30;20055;-79
2022/04/28 02:03:39;;;;;;;5.57;2.92;;;;;;;3.90;45.52;100557.16;4729479;30;20047;-78
2022/04/28 02:06:05;;;;;;;3.92;2.60;;;;;;;3.85;45.91;100556.19;4747613;30;20055;-79
2022/04/28 02:08:32;;;;;;;4.28;2.60;;;;;;;3.76;46.14;100545.59;4719108;30;20138;-80
2022/04/28 02:11:00;;;;;;;5.75;2.97;;;;;;;3.83;46.30;100568.13;4745579;30;20060;-79
2022/04/28 02:13:49;;;;;;;5.18;3.25;;;;;;;3.77;46.85;100571.38;4748647;30;20101;-79
2022/04/28 02:16:20;;;;;;;5.05;2.67;;;;;;;3.56;47.19;100550.09;4735944;30;20463;-78
2022/04/28 02:18:58;;;;;;;6.85;2.63;;;;;;;3.49;47.19;100558.47;4748767;30;20064;-79
2022/04/28 02:21:24;;;;;;;5.72;2.65;;;;;;;3.45;47.43;100557.47;4749756;30;20063;-79
2022/04/28 02:23:50;;;;;;;5.93;2.60;;;;;;;3.40;46.87;100552.19;4747558;30;20120;-78
2022/04/28 02:26:16;;;;;;;4.05;2.15;;;;;;;3.17;47.09;100544.59;4741021;30;20040;-80
2022/04/28 02:28:43;;;;;;;4.85;2.10;;;;;;;3.19;47.71;100551.50;4771421;29;20036;-79
2022/04/28 02:31:09;;;;;;;3.42;2.15;;;;;;;3.44;47.64;100579.78;4751483;30;20069;-77
2022/04/28 02:33:35;;;;;;;4.07;2.10;;;;;;;3.41;47.14;100568.53;4770952;30;20052;-78
2022/04/28 02:36:09;;;;;;;3.05;1.98;;;;;;;3.14;47.08;100520.47;4735440;30;20048;-78
2022/04/28 02:38:36;;;;;;;3.35;1.90;;;;;;;3.40;46.71;100566.78;4749141;30;20728;-79
2022/04/28 02:41:05;;;;;;;5.05;2.33;;;;;;;3.48;46.65;100575.59;4734786;30;20147;-75
2022/04/28 02:43:36;;;;;;;3.60;2.17;;;;;;;3.49;46.78;100566.19;4769175;30;20075;-77
2022/04/28 02:46:14;;;;;;;4.22;2.38;;;;;;;3.66;46.50;100595.03;4748807;30;20134;-78
2022/04/28 02:48:53;;;;;;;5.25;2.40;;;;;;;3.59;46.18;100581.97;4742211;30;20052;-79
2022/04/28 02:51:19;;;;;;;3.97;2.47;;;;;;;3.38;46.44;100558.13;4749755;30;20074;-78
2022/04/28 02:53:45;;;;;;;5.15;2.40;;;;;;;3.26;46.20;100535.44;4735607;30;20079;-79
2022/04/28 02:56:11;;;;;;;4.05;2.20;;;;;;;3.70;46.16;100602.03;4754807;30;20043;-79
2022/04/28 02:58:37;;;;;;;4.32;2.35;;;;;;;3.59;46.61;100581.97;4738320;30;20502;-79
2022/04/28 03:01:06;;;;;;;3.47;2.20;;;;;;;3.77;46.72;100593.69;4748451;30;20100;-79
2022/04/28 03:03:32;;;;;;;4.35;2.22;;;;;;;3.81;46.07;100610.09;4736580;30;20059;-77
2022/04/28 03:11:30;;;;;;;3.05;1.95;;;;;;;3.41;46.16;100541.06;4760926;30;20462;-79
2022/04/28 03:13:56;;;;;;;2.83;1.83;;;;;;;3.22;46.00;100488.16;4726255;30;20417;-77
2022/04/28 03:16:24;;;;;;;3.47;1.98;;;;;;;3.59;45.75;100543.38;4733368;30;20150;-79
2022/04/28 03:18:56;;;;;;;2.65;1.65;;;;;;;3.36;45.25;100493.72;4733470;30;20611;-79
2022/04/28 03:21:22;;;;;;;2.83;1.50;;;;;;;3.71;45.03;100539.41;4746635;30;20055;-78
2022/04/28 03:23:48;;;;;;;1.95;1.42;;;;;;;4.23;44.16;100627.69;4760042;30;20047;-79
2022/04/28 03:26:14;;;;;;;4.38;1.80;;;;;;;4.26;44.41;100620.06;4733499;30;20064;-77
2022/04/28 03:28:40;;;;;;;3.10;1.45;;;;;;;4.42;43.66;100630.81;4745348;30;20051;-78
2022/04/28 03:31:06;;;;;;;2.70;1.40;;;;;;;4.41;43.68;100622.22;4731742;30;20517;-78
2022/04/28 03:33:52;;;;;;;2.80;1.10;;;;;;;4.63;43.02;100646.94;4740772;30;20058;-79
2022/04/28 03:39:04;;;;;;;2.25;1.40;;;;;;;4.73;42.03;100637.75;4737090;30;20067;-80
2022/04/28 03:41:30;;;;;;;2.08;1.20;;;;;;;4.88;41.72;100649.31;4751373;30;21166;-81
2022/04/28 03:43:56;;;;;;;3.53;1.30;;;;;;;4.84;41.62;100640.66;4732432;30;20044;-79
2022/04/28 03:46:24;;;;;;;1.77;1.20;;;;;;;4.99;41.24;100655.66;4745476;30;20399;-80
2022/04/28 03:48:51;;;;;;;2.10;1.42;;;;;;;5.18;41.45;100653.59;4751187;30;20147;-78
2022/04/28 03:51:18;;;;;;;2.80;1.30;;;;;;;5.06;40.72;100611.13;4736651;30;20044;-80
2022/04/28 03:53:44;;;;;;;5.97;1.17;;;;;;;5.48;40.76;100661.25;4746646;30;20149;-81
2022/04/28 03:56:10;;;;;;;2.30;1.50;;;;;;;5.52;39.57;100641.53;4758363;30;20043;-79
2022/04/28 03:58:36;;;;;;;3.65;1.30;;;;;;;5.76;39.53;100645.56;4776088;30;20044;-81
2022/04/28 04:01:02;;;;;;;1.90;1.20;;;;;;;5.70;38.74;100618.75;4764005;29;20070;-79
2022/04/28 04:03:44;;;;;;;3.08;1.60;;;;;;;6.09;38.65;100654.97;4734711;30;20047;-81
2022/04/28 04:06:10;;;;;;;2.95;1.50;;;;;;;6.19;38.05;100646.63;4737872;30;20050;-79
2022/04/28 04:08:37;;;;;;;4.07;1.45;;;;;;;6.52;37.63;100678.34;4743700;30;20142;-79
2022/04/28 04:11:10;;;;;;;2.33;1.58;;;;;;;6.61;38.03;100671.66;4744992;30;20043;-81
2022/04/28 04:13:37;;;;;;;2.00;1.40;;;;;;;6.67;37.36;100676.09;4752741;30;20051;-79
2022/04/28 04:16:03;;;;;;;2.75;1.27;;;;;;;6.70;37.61;100677.88;4763679;30;20067;-78
2022/04/28 04:18:32;;;;;;;1.63;1.20;;;;;;;6.72;37.52;100673.63;4766028;30;20071;-78
2022/04/28 04:21:34;;;;;;;2.25;1.50;;;;;;;6.65;37.05;100635.53;4743305;30;20051;-79
2022/04/28 04:24:45;;;;;;;3.28;1.75;;;;;;;6.86;36.04;100624.72;4713499;30;20089;-80
2022/04/28 04:27:17;;;;;;;1.98;1.17;;;;;;;7.32;35.94;100643.69;4748222;30;20458;-81
2022/04/28 04:33:19;;;;;;;2.85;1.42;;;;;;;8.52;35.38;100692.25;4750614;30;20070;-81
2022/04/28 04:35:45;;;;;;;2.40;1.30;;;;;;;8.86;34.75;100710.88;4753094;30;20048;-79
2022/04/28 04:42:08;;;;;;;2.22;1.20;;;;;;;8.56;33.73;100575.59;4715652;30;20052;-79
2022/04/28 04:44:37;;;;;;;1.88;1.50;;;;;;;8.87;33.26;100591.47;4737412;30;20383;-79
2022/04/28 04:47:04;;;;;;;3.28;1.33;;;;;;;9.04;32.93;100602.06;4742574;30;20047;-81
2022/04/28 04:49:41;;;;;;;2.60;1.23;;;;;;;9.16;32.43;100593.50;4744789;30;20055;-81
2022/04/28 04:52:19;;;;;;;15.40;8.48;;;;;;;9.37;32.05;100612.75;4733120;30;20047;-80
2022/04/28 04:55:10;;;;;;;30.45;16.67;;;;;;;10.11;31.46;100690.44;4751123;30;20059;-78
2022/04/28 04:57:56;;;;;;;2.85;1.35;;;;;;;10.44;31.57;100729.72;4746877;30;20082;-81
2022/04/28 05:00:26;;;;;;;6.72;3.33;;;;;;;10.58;31.49;100722.00;4758629;30;20358;-81
2022/04/28 05:03:26;;;;;;;5.28;3.50;;;;;;;10.28;30.68;100643.75;4751358;30;20139;-80
2022/04/28 05:05:57;;;;;;;6.30;2.97;;;;;;;11.13;31.07;100737.91;4766391;30;20052;-82
2022/04/28 05:08:42;;;;;;;2.25;1.50;;;;;;;10.54;30.33;100623.09;4752081;30;20420;-81
2022/04/28 05:11:17;;;;;;;2.50;1.60;;;;;;;11.48;30.27;100738.00;4739007;30;20085;-80
2022/04/28 05:13:57;;;;;;;3.60;1.40;;;;;;;11.33;29.45;100671.97;4722446;30;20128;-81
2022/04/28 05:16:23;;;;;;;2.40;1.75;;;;;;;12.04;29.11;100759.84;4750455;30;20127;-80
2022/04/28 05:19:11;;;;;;;3.20;1.45;;;;;;;11.33;28.83;100580.75;4734759;30;20058;-80
2022/04/28 05:21:56;;;;;;;5.50;1.50;;;;;;;12.38;28.59;100733.72;4744540;30;20043;-81
2022/04/28 05:24:25;;;;;;;14.68;8.20;;;;;;;13.93;28.02;100722.56;4731483;30;20489;-81
2022/04/28 05:27:17;;;;;;;20.52;10.90;;;;;;;15.94;25.93;100572.34;4742061;30;20055;-81
2022/04/28 05:30:22;;;;;;;91.60;43.47;;;;;;;18.52;23.75;100585.53;4741217;30;20055;-83
2022/04/28 05:33:06;;;;;;;68.55;36.70;;;;;;;21.32;22.86;100711.66;4740732;30;20052;-80
2022/04/28 05:36:01;;;;;;;37.40;21.83;;;;;;;22.93;21.45;100730.56;4760125;30;20078;-80
2022/04/28 05:38:29;;;;;;;2.58;1.63;;;;;;;23.92;19.86;100682.50;4750035;30;20191;-81
2022/04/28 05:40:55;;;;;;;18.40;11.00;;;;;;;25.30;18.87;100714.25;4721900;30;20059;-79
2022/04/28 05:46:05;;;;;;;64.35;38.72;;;;;;;27.60;16.96;100712.84;4743694;30;20050;-81
2022/04/28 05:48:34;;;;;;;7.80;5.28;;;;;;;27.93;16.10;100705.34;4743472;30;20043;-78
2022/04/28 05:51:01;;;;;;;42.25;26.65;;;;;;;28.77;15.36;100721.03;4751637;30;20078;-79
2022/04/28 05:53:27;;;;;;;15.98;9.43;;;;;;;29.50;14.60;100716.69;4774732;30;20059;-79
2022/04/28 05:56:08;;;;;;;5.18;2.25;;;;;;;29.86;13.90;100665.75;4743570;30;20632;-81
2022/04/28 05:58:57;;;;;;;27.00;19.02;;;;;;;30.39;13.43;100659.88;4753501;30;20060;-81
2022/04/28 06:01:42;;;;;;;10.52;5.93;;;;;;;31.06;12.82;100670.69;4745272;30;20071;-82
2022/04/28 06:04:14;;;;;;;12.77;9.07;;;;;;;31.83;12.19;100641.94;4749310;30;20059;-80
2022/04/28 06:06:51;;;;;;;14.27;10.38;;;;;;;32.02;11.26;100597.28;4748783;30;20040;-82
2022/04/28 06:09:38;;;;;;;9.82;3.50;;;;;;;33.25;11.53;100687.88;4738818;30;21844;-80
2022/04/28 06:12:05;;;;;;;5.45;3.20;;;;;;;33.09;11.15;100679.50;4742006;30;20572;-81
2022/04/28 06:15:23;;;;;;;10.20;7.97;;;;;;;34.09;10.12;100721.56;4731831;30;20479;-82
2022/04/28 06:18:21;;;;;;;12.57;9.38;;;;;;;34.50;10.25;100656.50;4741984;30;20056;-82
2022/04/28 06:20:48;;;;;;;8.65;6.28;;;;;;;35.11;9.79;100701.97;4717774;30;20526;-81
2022/04/28 06:23:31;;;;;;;5.72;2.10;;;;;;;35.37;9.49;100710.19;4751706;30;20048;-82
2022/04/28 06:26:03;;;;;;;4.95;3.55;;;;;;;34.43;9.51;100679.69;4742979;30;20048;-82
2022/04/28 06:28:36;;;;;;;6.82;4.38;;;;;;;35.07;9.20;100736.56;4736374;30;20043;-81
2022/04/28 06:31:09;;;;;;;5.65;3.28;;;;;;;34.10;9.02;100609.00;4763421;30;20048;-82
2022/04/28 06:34:15;;;;;;;5.85;3.53;;;;;;;35.55;8.92;100695.84;4751566;30;20067;-84
2022/04/28 06:36:41;;;;;;;5.70;4.07;;;;;;;35.61;8.46;100630.28;4751453;30;20055;-84
2022/04/28 06:39:14;;;;;;;6.32;3.03;;;;;;;35.92;8.49;100642.50;4738863;30;20130;-84
2022/04/28 06:41:46;;;;;;;4.53;3.30;;;;;;;37.27;7.78;100712.38;4746118;30;20169;-87
2022/04/28 06:44:41;;;;;;;5.20;3.10;;;;;;;37.71;7.63;100641.53;4773839;30;20585;-87
2022/04/28 06:47:26;;;;;;;4.63;2.28;;;;;;;38.65;7.21;100717.03;4756648;30;20059;-83
2022/04/28 06:50:13;;;;;;;8.90;3.08;;;;;;;38.41;6.79;100603.84;4758092;30;20638;-86
2022/04/28 06:52:58;;;;;;;2.53;2.00;;;;;;;38.59;6.80;100655.22;4761638;30;20048;-82
2022/04/28 06:55:59;;;;;;;3.17;1.88;;;;;;;38.62;6.85;100613.28;4727012;30;20047;-84
2022/04/28 06:58:31;;;;;;;4.35;2.38;;;;;;;37.15;7.20;100625.06;4750120;30;20051;-82
2022/04/28 07:01:17;;;;;;;7.90;3.03;;;;;;;37.98;6.90;100693.78;4755148;30;20048;-86
2022/04/28 07:03:44;;;;;;;4.30;2.00;;;;;;;38.11;6.69;100702.22;4757321;30;20059;-86
2022/04/28 07:06:26;;;;;;;5.90;4.18;;;;;;;36.37;7.26;100627.00;4757570;30;20369;-85
2022/04/28 07:09:05;;;;;;;5.88;3.70;;;;;;;36.93;7.10;100636.38;4745334;30;20155;-83
2022/04/28 07:11:32;;;;;;;8.32;5.25;;;;;;;35.58;7.01;100644.97;4736729;30;20742;-85
2022/04/28 07:14:18;;;;;;;4.75;4.00;;;;;;;33.27;7.44;100639.22;4750207;30;20062;-82
2022/04/28 07:17:38;;;;;;;16.55;14.35;;;;;;;34.96;7.65;100693.56;4715425;30;20577;-82
2022/04/28 07:20:45;;;;;;;5.95;4.20;;;;;;;35.65;7.02;100603.75;4703851;30;20099;-83
2022/04/28 07:23:15;;;;;;;1.70;1.60;;;;;;;37.75;6.66;100713.47;4703453;30;20102;-83
2022/04/28 07:25:41;;;;;;;4.25;1.60;;;;;;;38.46;5.86;100655.78;4706151;30;20071;-83
2022/04/28 07:28:07;;;;;;;2.53;1.65;;;;;;;39.56;5.90;100719.25;4748319;30;20127;-82
2022/04/28 07:30:57;;;;;;;6.55;5.90;;;;;;;40.49;5.69;100727.25;4747564;30;20060;-81
2022/04/28 07:33:47;;;;;;;5.53;4.30;;;;;;;40.86;5.63;100710.94;4765435;30;20071;-81
2022/04/28 07:36:32;;;;;;;;;;;;;;;40.70;5.33;100720.19;4749041;30;20508;-84
2022/04/28 07:39:50;;;;;;;5.75;3.67;;;;;;;39.98;5.90;100737.97;4734808;30;19925;-83
2022/04/28 07:42:27;;;;;;;5.63;4.03;;;;;;;39.78;5.46;100629.59;4760509;30;20070;-81
2022/04/28 07:45:42;;;;;;;11.20;9.82;;;;;;;40.26;5.32;100636.56;4749954;30;20094;-82
2022/04/28 07:48:19;;;;;;;8.20;6.65;;;;;;;40.94;4.93;100656.28;4725108;30;20052;-86
2022/04/28 07:50:49;;;;;;;5.60;3.17;;;;;;;41.01;4.59;100629.06;4737714;30;20135;-85
2022/04/28 07:53:21;;;;;;;5.50;4.70;;;;;;;40.98;4.75;100696.81;4735280;30;20096;-82
2022/04/28 07:58:35;;;;;;;6.38;3.03;;;;;;;42.48;4.57;100720.56;4749144;30;20050;-83
2022/04/28 08:01:19;;;;;;;5.93;3.88;;;;;;;42.56;4.41;100699.34;4769772;30;20051;-81
2022/04/28 08:03:46;;;;;;;1.67;1.52;;;;;;;42.52;4.17;100716.38;4760834;30;20043;-86
2022/04/28 08:06:16;;;;;;;2.47;2.20;;;;;;;42.51;4.27;100711.97;4750026;30;20175;-80
2022/04/28 08:08:49;;;;;;;4.18;3.00;;;;;;;42.37;3.88;100651.78;4748841;30;20063;-81
2022/04/28 08:11:24;;;;;;;4.57;1.92;;;;;;;43.49;3.83;100725.31;4752496;30;20078;-83
2022/04/28 08:13:56;;;;;;;1.98;1.60;;;;;;;43.79;3.46;100715.84;4755407;30;20051;-83
2022/04/28 08:16:30;;;;;;;4.53;1.52;;;;;;;44.19;3.21;100646.47;4760753;30;20071;-81
2022/04/28 08:19:01;;;;;;;3.45;2.17;;;;;;;44.90;3.17;100710.53;4755171;30;20122;-80
2022/04/28 08:21:47;;;;;;;2.38;1.70;;;;;;;43.96;3.11;100699.81;4747347;30;20059;-81
2022/04/28 08:24:17;;;;;;;3.65;1.85;;;;;;;40.73;3.47;100719.78;4737534;30;20051;-81
2022/04/28 08:26:55;;;;;;;3.90;2.50;;;;;;;39.55;4.34;100719.44;4732781;30;20517;-83
2022/04/28 08:29:24;;;;;;;5.65;2.10;;;;;;;39.14;4.63;100705.06;4748581;30;20081;-78
2022/04/28 08:31:58;;;;;;;5.72;1.92;;;;;;;39.67;4.16;100695.34;4723604;30;20193;-81
2022/04/28 08:34:25;;;;;;;;;;;;;;;40.58;3.91;100698.00;4764242;30;20075;-81
2022/04/28 08:37:15;;;;;;;3.63;2.70;;;;;;;41.71;3.87;100691.25;4747028;30;19928;-79
2022/04/28 08:39:41;;;;;;;3.53;3.15;;;;;;;41.08;4.01;100668.19;4746137;30;20044;-79
2022/04/28 08:42:12;;;;;;;3.70;1.80;;;;;;;38.65;4.18;100702.59;4735250;30;20051;-79
2022/04/28 08:45:00;;;;;;;6.28;3.65;;;;;;;36.48;4.55;100680.94;4735738;30;20044;-79
2022/04/28 08:47:47;;;;;;;3.28;2.40;;;;;;;37.71;4.91;100703.13;4749764;30;20052;-79
2022/04/28 08:50:49;;;;;;;2.67;1.85;;;;;;;38.97;4.56;100704.31;4715151;30;20049;-82
2022/04/28 08:53:16;;;;;;;4.65;2.65;;;;;;;39.36;4.16;100688.97;4750941;30;20055;-80
2022/04/28 08:55:43;;;;;;;3.53;2.67;;;;;;;38.82;4.14;100706.09;4764143;30;20085;-81
2022/04/28 08:58:10;;;;;;;2.22;1.80;;;;;;;39.35;4.27;100691.88;4770265;30;20048;-85
2022/04/28 09:00:45;;;;;;;2.97;1.70;;;;;;;39.23;4.24;100696.88;4757992;30;20059;-82
2022/04/28 09:03:46;;;;;;;2.30;1.75;;;;;;;38.05;4.62;100689.38;4764663;30;20051;-79
2022/04/28 09:06:43;;;;;;;4.28;1.73;;;;;;;37.72;4.68;100696.69;4760635;30;20133;-80
2022/04/28 09:09:28;;;;;;;3.70;1.95;;;;;;;37.72;4.50;100694.78;4766583;30;20167;-79
2022/04/28 09:12:13;;;;;;;5.18;3.75;;;;;;;38.63;4.47;100663.88;4764500;30;20081;-82
2022/04/28 09:15:11;;;;;;;5.50;3.20;;;;;;;38.78;4.50;100686.56;4752698;30;20050;-82
2022/04/28 09:17:42;;;;;;;5.68;1.70;;;;;;;38.06;4.79;100682.91;4758165;30;20166;-80
2022/04/28 09:20:16;;;;;;;4.38;3.92;;;;;;;35.77;4.89;100693.66;4748655;30;20544;-81
2022/04/28 09:26:03;;;;;;;13.10;4.55;;;;;;;39.00;4.57;100695.81;4738427;30;20055;-82
2022/04/28 09:28:30;;;;;;;2.13;1.70;;;;;;;39.51;4.48;100648.19;4736020;30;20180;-80
2022/04/28 09:30:58;;;;;;;2.95;2.17;;;;;;;38.69;4.44;100650.44;4736626;30;20073;-82
2022/04/28 09:34:03;;;;;;;7.00;4.15;;;;;;;39.52;4.33;100676.25;4735036;30;20185;-80
2022/04/28 09:37:26;;;;;;;3.83;2.20;;;;;;;39.90;3.89;100666.22;4765096;30;20056;-79
2022/04/28 09:42:59;;;;;;;;;;;;;;;39.57;4.37;100682.84;4743154;30;20076;-80
2022/04/28 09:45:38;;;;;;;8.55;4.47;;;;;;;38.89;4.69;100689.94;4725713;30;20476;-80
2022/04/28 09:48:07;;;;;;;11.40;6.43;;;;;;;39.06;4.63;100669.78;4746842;30;20472;-84
2022/04/28 09:51:03;;;;;;;9.88;3.60;;;;;;;40.00;3.95;100689.63;4760415;30;20051;-84
2022/04/28 09:53:54;;;;;;;5.63;3.78;;;;;;;40.74;4.12;100672.41;4742532;30;20461;-83
2022/04/28 09:56:37;;;;;;;4.95;2.88;;;;;;;40.40;4.14;100692.94;4742817;30;20413;-82
2022/04/28 09:59:19;;;;;;;3.25;1.73;;;;;;;37.97;4.43;100630.47;4763762;30;20130;-81
2022/04/28 10:01:51;;;;;;;9.52;4.85;;;;;;;36.83;4.66;100576.03;4740427;30;20051;-83
2022/04/28 10:04:21;;;;;;;7.43;4.25;;;;;;;35.63;5.21;100586.84;4754633;30;20051;-79
2022/04/28 10:07:17;;;;;;;9.80;6.72;;;;;;;34.34;5.89;100692.22;4747886;30;20059;-81
2022/04/28 10:09:46;;;;;;;12.15;9.65;;;;;;;33.18;6.27;100609.41;4753385;30;20044;-83
2022/04/28 10:12:24;;;;;;;3.95;2.55;;;;;;;33.64;5.88;100684.38;4748001;30;20509;-81
2022/04/28 10:15:11;;;;;;;7.00;5.68;;;;;;;33.79;5.93;100647.84;4744802;30;20513;-81
2022/04/28 10:17:50;;;;;;;9.38;6.18;;;;;;;34.19;5.89;100640.53;4739174;30;20060;-80
2022/04/28 10:20:24;;;;;;;6.45;2.20;;;;;;;34.89;5.66;100682.44;4758114;29;20054;-82
2022/04/28 10:22:56;;;;;;;6.75;4.43;;;;;;;33.17;5.96;100688.59;4773765;29;20052;-82
2022/04/28 10:34:27;;;;;;;12.65;11.30;;;;;;;28.95;7.55;100697.47;4761480;30;20109;-81
2022/04/28 10:36:57;;;;;;;10.48;6.90;;;;;;;27.60;8.12;100718.22;4746334;30;20043;-78
2022/04/28 10:39:38;;;;;;;7.38;5.57;;;;;;;26.04;8.24;100718.03;4749669;30;20103;-79
2022/04/28 10:42:20;;;;;;;10.18;7.60;;;;;;;25.16;8.89;100710.59;4768712;30;20044;-79
2022/04/28 10:44:54;;;;;;;7.22;4.03;;;;;;;24.76;9.20;100704.78;4765843;30;20123;-80
2022/04/28 10:47:36;;;;;;;4.53;2.50;;;;;;;24.25;9.52;100724.25;4762149;30;20040;-78
2022/04/28 10:50:03;;;;;;;;;;;;;;;23.64;9.73;100726.38;4772639;30;20432;-81
2022/04/28 10:52:29;;;;;;;9.50;6.75;;;;;;;22.54;10.45;100728.75;4749588;30;19925;-80
2022/04/28 10:55:05;;;;;;;7.45;4.72;;;;;;;21.73;10.78;100726.84;4771150;30;20070;-81
2022/04/28 10:57:36;;;;;;;10.75;5.72;;;;;;;21.05;11.16;100703.88;4754376;30;20056;-79
2022/04/28 11:00:04;;;;;;;9.07;6.05;;;;;;;20.88;11.23;100725.69;4770851;30;20035;-82
2022/04/28 11:02:37;;;;;;;9.35;5.95;;;;;;;20.37;11.49;100693.13;4775261;30;20108;-86
2022/04/28 11:05:27;;;;;;;9.27;7.35;;;;;;;20.29;11.71;100729.53;4740047;30;20058;-82
2022/04/28 11:07:54;;;;;;;8.88;4.80;;;;;;;19.31;12.21;100615.69;4739790;30;20051;-83
2022/04/28 11:10:20;;;;;;;7.15;4.15;;;;;;;19.19;12.37;100677.63;4767492;30;20051;-84
2022/04/28 11:12:47;;;;;;;8.38;3.35;;;;;;;18.47;12.98;100613.78;4741392;30;20044;-85
2022/04/28 11:15:14;;;;;;;7.35;4.05;;;;;;;18.33;13.03;100622.06;4753257;30;20113;-85
2022/04/28 11:17:44;;;;;;;6.47;3.75;;;;;;;18.06;13.39;100648.25;4781434;30;20071;-87
2022/04/28 11:20:12;;;;;;;10.10;5.22;;;;;;;18.49;13.61;100720.00;4754120;30;20140;-85
2022/04/28 11:22:48;;;;;;;8.60;6.07;;;;;;;18.05;13.96;100678.13;4739667;30;20060;-83
2022/04/28 11:25:19;;;;;;;8.15;4.45;;;;;;;18.13;14.01;100708.69;4730893;30;20051;-82
2022/04/28 11:27:59;;;;;;;10.48;6.38;;;;;;;18.14;14.31;100720.94;4750866;30;20058;-84
2022/04/28 11:30:27;;;;;;;11.38;7.15;;;;;;;17.99;14.33;100720.41;4766093;30;20110;-85
2022/04/28 11:32:59;;;;;;;5.13;3.97;;;;;;;17.89;14.66;100721.53;4724852;30;20075;-82
2022/04/28 11:35:37;;;;;;;8.38;4.07;;;;;;;17.07;15.00;100611.22;4740434;30;20043;-82
2022/04/28 11:38:04;;;;;;;10.68;7.43;;;;;;;17.11;15.01;100648.81;4749681;30;20078;-82
2022/04/28 11:40:33;;;;;;;6.95;4.70;;;;;;;17.18;15.33;100716.13;4765081;30;20093;-83
2022/04/28 11:43:03;;;;;;;4.63;3.50;;;;;;;17.01;15.19;100712.09;4749550;30;20047;-80
2022/04/28 11:45:31;;;;;;;3.67;3.08;;;;;;;16.65;15.39;100669.03;4733590;30;20052;-80
2022/04/28 11:48:03;;;;;;;7.75;2.70;;;;;;;16.03;15.08;100592.31;4745914;30;20051;-81
2022/04/28 11:50:32;;;;;;;6.82;4.88;;;;;;;16.48;15.49;100695.63;4761162;30;20064;-79
2022/04/28 11:53:16;;;;;;;3.83;2.10;;;;;;;16.23;15.69;100699.56;4759773;30;20051;-82
2022/04/28 11:55:45;;;;;;;6.47;3.25;;;;;;;15.81;16.14;100684.50;4749754;30;20058;-81
2022/04/28 11:58:15;;;;;;;5.10;3.58;;;;;;;15.68;16.28;100690.81;4755278;30;20052;-80
2022/04/28 12:00:49;;;;;;;9.45;4.15;;;;;;;15.54;16.47;100691.06;4746746;30;20104;-82
2022/04/28 12:03:30;;;;;;;7.03;3.13;;;;;;;15.38;16.92;100710.53;4749323;30;20109;-82
2022/04/28 12:05:57;;;;;;;6.90;2.20;;;;;;;15.05;16.98;100700.47;4763133;30;20101;-81
2022/04/28 12:08:24;;;;;;;5.45;2.10;;;;;;;14.75;17.03;100695.59;4735402;30;20142;-81
2022/04/28 12:19:19;;;;;;;8.10;2.70;;;;;;;14.52;16.88;100693.22;4755883;30;20060;-81
2022/04/28 12:19:20;;;;;;;5.20;2.58;;;;;;;14.50;16.96;100662.69;4738770;30;20079;-80
2022/04/28 12:21:46;;;;;;;4.28;2.72;;;;;;;14.42;17.01;100650.56;4780685;30;20058;-80
2022/04/28 12:24:19;;;;;;;5.47;2.40;;;;;;;14.23;17.06;100664.75;4775793;30;20044;-83
2022/04/28 12:26:51;;;;;;;7.00;2.50;;;;;;;13.88;17.47;100652.84;4740157;30;20039;-82
2022/04/28 12:29:19;;;;;;;6.40;2.45;;;;;;;12.92;17.62;100508.06;4746773;30;20141;-84
2022/04/28 12:31:47;;;;;;;8.32;5.22;;;;;;;13.41;17.46;100632.28;4750592;30;20070;-83
2022/04/28 12:34:34;;;;;;;6.13;2.58;;;;;;;13.01;17.77;100594.22;4751540;30;20055;-83
2022/04/28 12:37:03;;;;;;;8.80;6.60;;;;;;;13.09;17.94;100628.13;4772763;30;20071;-80
2022/04/28 12:40:02;;;;;;;9.45;5.75;;;;;;;13.38;18.00;100687.19;4757739;30;21381;-83
2022/04/28 12:42:44;;;;;;;6.55;3.50;;;;;;;13.16;18.14;100642.88;4749785;30;20131;-79
2022/04/28 12:45:14;;;;;;;5.03;2.90;;;;;;;13.33;18.17;100689.84;4754944;30;20043;-80
2022/04/28 12:47:42;;;;;;;7.20;4.45;;;;;;;13.24;18.20;100669.00;4747146;30;20059;-81
2022/04/28 12:50:22;;;;;;;7.25;4.10;;;;;;;13.38;18.47;100677.59;4743499;30;20050;-79
2022/04/28 12:52:49;;;;;;;5.82;3.30;;;;;;;13.08;18.32;100615.94;4743266;30;20044;-79
2022/04/28 12:55:20;;;;;;;9.38;4.78;;;;;;;13.40;18.58;100652.34;4728204;30;20044;-78